createdAt,value
2022-12-20T00:02:03.356Z,55.42
2022-12-20T00:04:30.533Z,52.92
2022-12-20T00:06:57.585Z,58.78
2022-12-20T00:09:25.558Z,53.78
2022-12-20T00:11:52.641Z,55.45
2022-12-20T00:14:20.266Z,51.03
2022-12-20T00:16:47.458Z,52.85
2022-12-20T00:19:14.544Z,56.90
2022-12-20T00:21:42.996Z,63.13
2022-12-20T00:24:12.297Z,59.15
2022-12-20T00:26:39.673Z,61.70
2022-12-20T00:29:06.980Z,67.47
2022-12-20T00:31:34.508Z,51.95
2022-12-20T00:34:02.423Z,57.78
2022-12-20T00:36:30.766Z,55.90
2022-12-20T00:38:58.681Z,55.42
2022-12-20T00:41:27.195Z,48.80
2022-12-20T00:43:54.667Z,54.05
2022-12-20T00:46:23.654Z,58.15
2022-12-20T00:48:51.209Z,59.17
2022-12-20T00:51:23.498Z,50.70
2022-12-20T00:53:51.012Z,52.35
2022-12-20T00:56:20.210Z,48.63
2022-12-20T00:58:47.461Z,51.97
2022-12-20T01:01:17.569Z,42.65
2022-12-20T01:03:44.710Z,47.25
2022-12-20T01:06:12.378Z,45.63
2022-12-20T01:08:39.945Z,50.75
2022-12-20T01:11:12.786Z,49.17
2022-12-20T01:13:41.243Z,48.17
2022-12-20T01:16:09.704Z,46.92
2022-12-20T01:18:37.078Z,49.00
2022-12-20T01:21:05.347Z,43.70
2022-12-20T01:23:34.002Z,46.97
2022-12-20T01:26:01.912Z,40.75
2022-12-20T01:28:29.815Z,43.67
2022-12-20T01:30:56.920Z,45.33
2022-12-20T01:33:25.291Z,46.53
2022-12-20T01:35:57.802Z,46.78
2022-12-20T01:38:26.728Z,51.45
2022-12-20T01:40:54.347Z,50.40
2022-12-20T01:43:22.577Z,43.90
2022-12-20T01:45:50.073Z,50.90
2022-12-20T01:48:21.775Z,45.95
2022-12-20T01:50:49.598Z,47.10
2022-12-20T01:53:18.351Z,50.42
2022-12-20T01:55:47.970Z,48.63
2022-12-20T01:58:16.409Z,48.28
2022-12-20T02:00:43.736Z,49.30
2022-12-20T02:03:13.493Z,47.08
2022-12-20T02:05:43.305Z,48.53
2022-12-20T02:08:11.367Z,46.17
2022-12-20T02:10:58.773Z,50.45
2022-12-20T02:13:35.313Z,49.08
2022-12-20T02:16:03.764Z,48.13
2022-12-20T02:18:37.810Z,48.33
2022-12-20T02:21:24.382Z,44.95
2022-12-20T02:23:51.523Z,52.38
2022-12-20T02:26:36.852Z,46.75
2022-12-20T02:29:13.096Z,44.92
2022-12-20T02:31:43.743Z,46.83
2022-12-20T02:36:38.104Z,50.05
2022-12-20T02:39:05.314Z,50.22
2022-12-20T02:41:44.900Z,45.70
2022-12-20T02:44:33.827Z,51.72
2022-12-20T02:47:02.700Z,48.70
2022-12-20T02:49:31.638Z,49.85
2022-12-20T02:52:01.078Z,47.20
2022-12-20T02:54:28.840Z,50.30
2022-12-20T02:56:59.444Z,45.35
2022-12-20T02:59:30.426Z,45.33
2022-12-20T03:01:58.094Z,50.45
2022-12-20T03:04:29.541Z,46.80
2022-12-20T03:07:01.050Z,47.63
2022-12-20T03:09:29.026Z,46.22
2022-12-20T03:11:56.718Z,42.00
2022-12-20T03:14:24.801Z,47.88
2022-12-20T03:16:52.229Z,54.38
2022-12-20T03:19:19.728Z,45.97
2022-12-20T03:21:47.061Z,45.22
2022-12-20T03:24:14.945Z,49.70
2022-12-20T03:26:42.315Z,52.72
2022-12-20T03:29:11.373Z,51.17
2022-12-20T03:31:38.702Z,50.80
2022-12-20T03:34:07.025Z,49.17
2022-12-20T03:36:34.779Z,52.42
2022-12-20T03:39:02.747Z,49.53
2022-12-20T03:41:30.075Z,53.05
2022-12-20T03:43:57.149Z,50.05
2022-12-20T03:46:26.732Z,56.75
2022-12-20T03:48:54.181Z,52.97
2022-12-20T03:51:21.351Z,54.88
2022-12-20T03:53:48.539Z,47.72
2022-12-20T03:56:15.707Z,54.72
2022-12-20T03:58:43.244Z,47.92
2022-12-20T04:01:26.377Z,54.67
2022-12-20T04:03:54.083Z,51.20
2022-12-20T04:06:21.915Z,51.33
2022-12-20T04:08:49.181Z,50.10
2022-12-20T04:11:16.351Z,53.05
2022-12-20T04:13:44.723Z,52.08
2022-12-20T04:16:12.676Z,48.22
2022-12-20T04:18:39.818Z,50.47
2022-12-20T04:21:07.529Z,48.72
2022-12-20T04:23:35.925Z,46.38
2022-12-20T04:26:03.852Z,51.70
2022-12-20T04:28:31.253Z,52.20
2022-12-20T04:31:00.600Z,52.42
2022-12-20T04:33:28.390Z,51.70
2022-12-20T04:35:56.021Z,50.22
2022-12-20T04:38:23.710Z,47.88
2022-12-20T04:40:51.976Z,55.83
2022-12-20T04:43:19.389Z,46.80
2022-12-20T04:45:48.717Z,52.88
2022-12-20T04:48:54.733Z,52.08
2022-12-20T04:51:06.459Z,47.88
2022-12-20T04:53:55.077Z,50.20
2022-12-20T04:56:42.610Z,52.80
2022-12-20T04:59:11.074Z,48.60
2022-12-20T05:01:39.500Z,49.33
2022-12-20T05:04:06.961Z,49.55
2022-12-20T05:06:39.178Z,53.83
2022-12-20T05:09:06.465Z,56.83
2022-12-20T05:11:33.721Z,52.83
2022-12-20T05:14:03.130Z,52.85
2022-12-20T05:16:32.669Z,60.03
2022-12-20T05:18:59.916Z,76.78
2022-12-20T05:21:53.226Z,66.63
2022-12-20T05:24:38.976Z,64.43
2022-12-20T05:27:06.125Z,104.95
2022-12-20T05:29:33.323Z,90.65
2022-12-20T05:32:01.753Z,76.32
2022-12-20T05:34:28.909Z,85.35
2022-12-20T05:36:56.097Z,85.45
2022-12-20T05:39:23.462Z,78.80
2022-12-20T05:41:54.722Z,59.15
2022-12-20T05:44:22.234Z,69.22
2022-12-20T05:46:49.417Z,62.05
2022-12-20T05:49:19.499Z,61.80
2022-12-20T05:51:47.779Z,57.45
2022-12-20T05:54:14.909Z,66.55
2022-12-20T05:56:46.650Z,61.45
2022-12-20T05:59:24.096Z,59.30
2022-12-20T06:01:51.287Z,57.03
2022-12-20T06:04:18.507Z,54.97
2022-12-20T06:06:45.609Z,57.08
2022-12-20T06:09:16.811Z,57.67
2022-12-20T06:11:44.234Z,57.38
2022-12-20T06:14:13.682Z,58.17
2022-12-20T06:16:40.848Z,59.25
2022-12-20T06:19:09.150Z,57.58
2022-12-20T06:21:36.219Z,54.70
2022-12-20T06:24:03.841Z,60.15
2022-12-20T06:26:39.123Z,63.67
2022-12-20T06:29:07.507Z,62.53
2022-12-20T06:31:37.801Z,61.13
2022-12-20T06:34:05.682Z,65.50
2022-12-20T06:36:36.564Z,61.80
2022-12-20T06:39:09.487Z,71.68
2022-12-20T06:41:37.400Z,73.35
2022-12-20T06:44:04.644Z,77.07
2022-12-20T06:46:34.168Z,72.80
2022-12-20T06:49:01.562Z,80.28
2022-12-20T06:51:29.823Z,78.68
2022-12-20T06:53:59.983Z,71.57
2022-12-20T06:56:40.805Z,70.57
2022-12-20T06:59:21.723Z,69.50
2022-12-20T07:01:51.986Z,73.75
2022-12-20T07:04:19.750Z,77.93
2022-12-20T07:06:48.316Z,74.38
2022-12-20T07:09:20.755Z,72.57
2022-12-20T07:11:47.856Z,66.70
2022-12-20T07:14:19.252Z,67.82
2022-12-20T07:16:53.752Z,66.75
2022-12-20T07:19:28.201Z,75.93
2022-12-20T07:21:56.799Z,73.43
2022-12-20T07:24:24.074Z,67.43
2022-12-20T07:27:06.072Z,59.40
2022-12-20T07:29:34.529Z,58.78
2022-12-20T07:32:09.334Z,58.08
2022-12-20T07:34:39.543Z,55.95
2022-12-20T07:37:08.842Z,54.17
2022-12-20T07:39:36.314Z,58.45
2022-12-20T07:42:09.049Z,49.65
2022-12-20T07:44:38.921Z,54.28
2022-12-20T07:47:08.543Z,54.47
2022-12-20T07:49:40.622Z,52.53
2022-12-20T07:52:09.137Z,59.50
2022-12-20T07:54:43.782Z,61.33
2022-12-20T07:57:12.689Z,54.55
2022-12-20T07:59:41.784Z,53.20
2022-12-20T08:02:12.164Z,59.88
2022-12-20T08:04:39.510Z,65.32
2022-12-20T08:07:07.772Z,58.38
2022-12-20T08:09:38.152Z,60.63
2022-12-20T08:12:05.415Z,58.00
2022-12-20T08:14:32.533Z,48.78
2022-12-20T08:17:00.580Z,54.00
2022-12-20T08:19:32.202Z,49.83
2022-12-20T08:21:59.746Z,52.05
2022-12-20T08:24:27.026Z,51.65
2022-12-20T08:26:54.138Z,54.90
2022-12-20T08:29:21.310Z,55.05
2022-12-20T08:31:50.694Z,58.28
2022-12-20T08:34:18.082Z,57.30
2022-12-20T08:36:45.432Z,64.45
2022-12-20T08:39:12.965Z,61.47
2022-12-20T08:41:40.205Z,58.95
2022-12-20T08:44:10.782Z,62.92
2022-12-20T08:46:38.295Z,62.40
2022-12-20T08:49:05.883Z,58.85
2022-12-20T08:51:35.168Z,66.05
2022-12-20T08:54:03.140Z,63.35
2022-12-20T08:56:31.411Z,62.78
2022-12-20T08:58:58.568Z,62.78
2022-12-20T09:01:27.152Z,63.97
2022-12-20T09:03:56.799Z,59.58
2022-12-20T09:06:24.074Z,54.97
2022-12-20T09:08:53.851Z,56.47
2022-12-20T09:11:27.192Z,56.87
2022-12-20T09:13:56.033Z,58.92
2022-12-20T09:16:24.139Z,59.45
2022-12-20T09:19:00.789Z,61.80
2022-12-20T09:21:31.999Z,57.60
2022-12-20T09:24:00.480Z,57.75
2022-12-20T09:26:27.944Z,61.90
2022-12-20T09:28:55.300Z,67.78
2022-12-20T09:31:23.791Z,55.78
2022-12-20T09:33:51.267Z,59.65
2022-12-20T09:36:20.408Z,59.45
2022-12-20T09:38:47.936Z,64.68
2022-12-20T09:41:24.064Z,67.45
2022-12-20T09:43:51.891Z,66.18
2022-12-20T09:46:19.585Z,68.15
2022-12-20T09:48:47.675Z,64.95
2022-12-20T09:51:17.729Z,59.90
2022-12-20T09:53:44.878Z,75.65
2022-12-20T09:56:31.241Z,68.85
2022-12-20T09:59:04.795Z,61.00
2022-12-20T10:01:38.801Z,61.58
2022-12-20T10:04:19.488Z,73.80
2022-12-20T10:07:06.515Z,71.30
2022-12-20T10:09:33.641Z,66.57
2022-12-20T10:12:19.915Z,59.55
2022-12-20T10:15:02.175Z,66.15
2022-12-20T10:17:35.470Z,67.35
2022-12-20T10:20:27.771Z,72.65
2022-12-20T10:23:01.336Z,63.20
2022-12-20T10:25:32.012Z,71.43
2022-12-20T10:30:27.280Z,67.55
2022-12-20T10:32:55.649Z,70.32
2022-12-20T10:35:23.055Z,71.68
2022-12-20T10:38:12.753Z,79.03
2022-12-20T10:43:29.584Z,117.45
2022-12-20T10:46:02.503Z,75.00
2022-12-20T10:48:34.087Z,74.65
2022-12-20T10:51:02.943Z,77.22
2022-12-20T10:53:31.176Z,73.05
2022-12-20T10:56:24.683Z,70.82
2022-12-20T10:58:59.660Z,83.43
2022-12-20T11:01:32.003Z,106.10
2022-12-20T11:04:00.842Z,87.18
2022-12-20T11:06:48.290Z,92.35
2022-12-20T11:09:18.294Z,82.75
2022-12-20T11:12:04.086Z,97.03
2022-12-20T11:14:38.704Z,75.28
2022-12-20T11:17:16.617Z,82.75
2022-12-20T11:20:02.283Z,72.75
2022-12-20T11:22:29.433Z,94.22
2022-12-20T11:25:17.209Z,83.00
2022-12-20T11:28:07.359Z,83.05
2022-12-20T11:30:42.713Z,80.55
2022-12-20T11:33:20.992Z,75.78
2022-12-20T11:35:53.190Z,122.13
2022-12-20T11:38:29.211Z,83.65
2022-12-20T11:41:14.533Z,99.80
2022-12-20T11:46:55.501Z,95.35
2022-12-20T11:49:52.129Z,73.07
2022-12-20T11:52:23.147Z,76.05
2022-12-20T11:54:54.264Z,70.47
2022-12-20T11:57:23.976Z,66.05
2022-12-20T11:59:57.654Z,66.77
2022-12-20T12:02:24.911Z,78.30
2022-12-20T12:05:00.884Z,72.05
2022-12-20T12:07:31.463Z,85.20
2022-12-20T12:10:23.003Z,85.22
2022-12-20T12:13:08.972Z,80.88
2022-12-20T12:15:55.048Z,76.20
2022-12-20T12:18:24.583Z,84.70
2022-12-20T12:21:00.091Z,70.65
2022-12-20T12:23:48.201Z,76.18
2022-12-20T12:26:23.322Z,72.40
2022-12-20T12:28:54.807Z,96.60
2022-12-20T12:31:32.317Z,88.60
2022-12-20T12:34:14.441Z,113.95
2022-12-20T12:36:52.977Z,95.30
2022-12-20T12:39:30.396Z,79.93
2022-12-20T12:41:57.645Z,79.22
2022-12-20T12:44:43.011Z,99.68
2022-12-20T12:47:16.242Z,79.00
2022-12-20T12:49:44.759Z,88.50
2022-12-20T12:52:29.840Z,85.18
2022-12-20T12:55:01.070Z,106.82
2022-12-20T12:57:28.230Z,75.03
2022-12-20T12:59:55.550Z,80.15
2022-12-20T13:02:22.984Z,78.18
2022-12-20T13:04:56.366Z,76.22
2022-12-20T13:07:30.548Z,74.53
2022-12-20T13:09:57.774Z,71.45
2022-12-20T13:12:33.782Z,75.35
2022-12-20T13:15:00.977Z,78.38
2022-12-20T13:17:31.225Z,72.65
2022-12-20T13:19:59.142Z,70.68
2022-12-20T13:22:27.101Z,78.07
2022-12-20T13:24:58.398Z,75.47
2022-12-20T13:27:39.221Z,75.40
2022-12-20T13:30:13.303Z,67.35
2022-12-20T13:32:49.496Z,68.85
2022-12-20T13:35:25.751Z,71.55
2022-12-20T13:37:55.102Z,72.32
2022-12-20T13:40:42.853Z,68.93
2022-12-20T13:43:22.333Z,73.80
2022-12-20T13:45:56.187Z,67.25
2022-12-20T13:48:29.363Z,75.30
2022-12-20T13:50:57.753Z,69.95
2022-12-20T13:53:27.159Z,74.03
2022-12-20T13:55:55.390Z,68.72
2022-12-20T13:58:26.028Z,73.20
2022-12-20T14:03:25.375Z,82.90
2022-12-20T14:05:56.379Z,84.70
2022-12-20T14:08:26.497Z,79.80
2022-12-20T14:10:54.149Z,85.25
2022-12-20T14:13:28.164Z,88.38
2022-12-20T14:15:56.325Z,88.60
2022-12-20T14:18:27.880Z,92.63
2022-12-20T14:20:57.081Z,93.72
2022-12-20T14:23:25.510Z,92.40
2022-12-20T14:25:59.618Z,88.60
2022-12-20T14:28:32.117Z,89.35
2022-12-20T14:31:01.369Z,90.30
2022-12-20T14:33:31.070Z,84.57
2022-12-20T14:36:00.008Z,94.55
2022-12-20T14:38:31.813Z,87.82
2022-12-20T14:40:58.993Z,87.95
2022-12-20T14:43:33.365Z,86.22
2022-12-20T14:46:20.549Z,92.80
2022-12-20T14:48:47.838Z,89.25
2022-12-20T14:51:21.049Z,89.10
2022-12-20T14:53:50.458Z,149.27
2022-12-20T14:56:21.688Z,146.63
2022-12-20T14:59:02.536Z,135.38
2022-12-20T15:01:33.898Z,146.60
2022-12-20T15:04:21.063Z,113.18
2022-12-20T15:06:49.534Z,123.10
2022-12-20T15:09:17.480Z,133.50
2022-12-20T15:11:45.797Z,113.53
2022-12-20T15:14:28.480Z,103.93
2022-12-20T15:16:55.670Z,123.10
2022-12-20T15:19:22.877Z,120.47
2022-12-20T15:21:50.565Z,123.22
2022-12-20T15:24:19.843Z,96.78
2022-12-20T15:26:47.175Z,87.88
2022-12-20T15:29:19.104Z,85.47
2022-12-20T15:31:47.289Z,86.60
2022-12-20T15:34:25.818Z,81.90
2022-12-20T15:36:54.223Z,78.70
2022-12-20T15:39:21.846Z,106.20
2022-12-20T15:41:50.175Z,94.22
2022-12-20T15:44:21.475Z,123.75
2022-12-20T15:46:49.154Z,113.45
2022-12-20T15:49:17.580Z,101.88
2022-12-20T15:51:45.505Z,118.65
2022-12-20T15:54:35.852Z,126.80
2022-12-20T15:57:07.657Z,112.10
2022-12-20T16:02:24.481Z,103.57
2022-12-20T16:04:52.318Z,96.05
2022-12-20T16:07:19.582Z,97.68
2022-12-20T16:09:46.802Z,118.68
2022-12-20T16:12:18.838Z,131.55
2022-12-20T16:14:46.182Z,127.38
2022-12-20T16:17:14.228Z,94.88
2022-12-20T16:19:42.345Z,96.35
2022-12-20T16:22:15.596Z,101.13
2022-12-20T16:24:43.635Z,114.40
2022-12-20T16:27:10.964Z,104.22
2022-12-20T16:29:38.158Z,100.57
2022-12-20T16:32:13.518Z,97.20
2022-12-20T16:34:42.347Z,107.30
2022-12-20T16:37:10.761Z,104.35
2022-12-20T16:39:37.981Z,102.38
2022-12-20T16:42:07.461Z,112.93
2022-12-20T16:44:34.684Z,119.50
2022-12-20T16:47:01.898Z,143.18
2022-12-20T16:49:29.186Z,108.00
2022-12-20T16:51:56.585Z,118.47
2022-12-20T16:54:23.888Z,130.35
2022-12-20T16:56:55.347Z,103.82
2022-12-20T16:59:23.628Z,104.90
2022-12-20T17:01:53.512Z,104.05
2022-12-20T17:04:21.490Z,109.45
2022-12-20T17:06:49.354Z,120.40
2022-12-20T17:12:01.630Z,115.20
2022-12-20T17:14:28.883Z,116.28
2022-12-20T17:16:57.563Z,118.85
2022-12-20T17:19:24.970Z,122.65
2022-12-20T17:24:37.146Z,146.65
2022-12-20T17:27:04.640Z,154.82
2022-12-20T17:29:31.895Z,143.52
2022-12-20T17:31:59.608Z,149.68
2022-12-20T17:34:28.386Z,135.07
2022-12-20T17:36:56.862Z,138.85
2022-12-20T17:39:25.288Z,135.95
2022-12-20T17:41:54.207Z,143.70
2022-12-20T17:44:23.826Z,142.43
2022-12-20T17:46:51.356Z,145.63
2022-12-20T17:49:18.810Z,150.50
2022-12-20T17:51:46.272Z,127.00
2022-12-20T17:54:23.677Z,137.95
2022-12-20T17:56:51.013Z,129.25
2022-12-20T17:59:18.606Z,130.30
2022-12-20T18:01:46.742Z,125.30
2022-12-20T18:04:15.328Z,123.28
2022-12-20T18:06:44.053Z,110.75
2022-12-20T18:09:15.757Z,120.20
2022-12-20T18:11:43.185Z,135.48
2022-12-20T18:14:10.629Z,143.75
2022-12-20T18:16:41.176Z,134.93
2022-12-20T18:19:09.429Z,156.25
2022-12-20T18:21:36.735Z,164.20
2022-12-20T18:24:04.052Z,185.07
2022-12-20T18:26:32.037Z,183.65
2022-12-20T18:29:00.972Z,178.20
2022-12-20T18:31:29.563Z,170.20
2022-12-20T18:33:58.355Z,174.63
2022-12-20T18:36:27.237Z,152.32
2022-12-20T18:38:54.763Z,177.00
2022-12-20T18:41:25.256Z,161.00
2022-12-20T18:43:53.214Z,169.10
2022-12-20T18:46:21.497Z,130.63
2022-12-20T18:48:50.539Z,117.13
2022-12-20T18:51:18.936Z,115.28
2022-12-20T18:53:47.374Z,111.28
2022-12-20T18:56:19.939Z,123.78
2022-12-20T18:58:47.872Z,116.20
2022-12-20T19:01:16.700Z,131.55
2022-12-20T19:03:44.163Z,121.22
2022-12-20T19:06:12.674Z,140.63
2022-12-20T19:08:40.216Z,219.60
2022-12-20T19:11:10.432Z,194.77
2022-12-20T19:13:38.128Z,128.27
2022-12-20T19:16:09.403Z,125.90
2022-12-20T19:18:36.617Z,114.78
2022-12-20T19:21:07.537Z,110.65
2022-12-20T19:23:35.185Z,102.43
2022-12-20T19:26:05.625Z,102.75
2022-12-20T19:28:33.323Z,112.55
2022-12-20T19:31:08.509Z,159.57
2022-12-20T19:33:39.955Z,120.30
2022-12-20T19:36:14.228Z,110.55
2022-12-20T19:38:45.513Z,90.00
2022-12-20T19:41:13.393Z,101.07
2022-12-20T19:43:40.661Z,101.28
2022-12-20T19:46:08.049Z,93.18
2022-12-20T19:48:35.682Z,103.05
2022-12-20T19:51:03.638Z,97.90
2022-12-20T19:53:30.865Z,97.85
2022-12-20T19:55:58.253Z,97.80
2022-12-20T19:58:25.746Z,95.07
2022-12-20T20:00:53.240Z,103.30
2022-12-20T20:03:21.572Z,113.38
2022-12-20T20:05:49.281Z,106.72
2022-12-20T20:08:16.871Z,114.25
2022-12-20T20:10:44.798Z,120.13
2022-12-20T20:13:12.177Z,114.55
2022-12-20T20:15:39.524Z,145.68
2022-12-20T20:18:07.364Z,150.80
2022-12-20T20:20:34.900Z,123.20
2022-12-20T20:23:02.124Z,123.03
2022-12-20T20:25:29.319Z,129.10
2022-12-20T20:27:56.480Z,148.55
2022-12-20T20:30:23.649Z,132.90
2022-12-20T20:32:50.850Z,140.80
2022-12-20T20:35:18.106Z,131.65
2022-12-20T20:37:45.280Z,143.05
2022-12-20T20:40:13.105Z,131.05
2022-12-20T20:42:40.252Z,117.65
2022-12-20T20:45:07.933Z,118.93
2022-12-20T20:47:35.095Z,131.75
2022-12-20T20:50:02.333Z,123.78
2022-12-20T20:52:29.497Z,131.38
2022-12-20T20:54:56.653Z,116.18
2022-12-20T20:57:23.826Z,97.95
2022-12-20T20:59:50.979Z,104.30
2022-12-20T21:02:20.950Z,98.22
2022-12-20T21:05:16.629Z,96.10
2022-12-20T21:07:36.493Z,99.70
2022-12-20T21:10:04.367Z,97.45
2022-12-20T21:12:31.686Z,106.47
2022-12-20T21:17:46.291Z,110.93
2022-12-20T21:20:13.776Z,112.05
2022-12-20T21:22:41.028Z,114.70
2022-12-20T21:25:08.650Z,115.78
2022-12-20T21:27:35.832Z,116.55
2022-12-20T21:30:04.452Z,124.32
2022-12-20T21:32:31.776Z,123.15
2022-12-20T21:34:59.551Z,121.97
2022-12-20T21:37:27.026Z,130.95
2022-12-20T21:39:54.208Z,134.13
2022-12-20T21:42:21.389Z,134.18
2022-12-20T21:44:48.756Z,136.60
2022-12-20T21:47:16.004Z,129.88
2022-12-20T21:49:43.261Z,121.85
2022-12-20T21:52:11.888Z,130.43
2022-12-20T21:54:39.281Z,140.20
2022-12-20T21:57:06.491Z,128.13
2022-12-20T21:59:33.698Z,129.27
2022-12-20T22:02:01.245Z,128.27
2022-12-20T22:04:28.634Z,127.93
2022-12-20T22:06:55.821Z,122.97
2022-12-20T22:09:23.213Z,127.60
2022-12-20T22:11:50.517Z,120.28
2022-12-20T22:14:17.682Z,126.03
2022-12-20T22:16:45.072Z,131.52
2022-12-20T22:19:14.706Z,122.35
2022-12-20T22:21:41.937Z,119.30
2022-12-20T22:24:09.285Z,125.72
2022-12-20T22:26:37.007Z,119.78
2022-12-20T22:29:06.015Z,129.02
2022-12-20T22:31:33.705Z,120.80
2022-12-20T22:34:01.877Z,124.05
2022-12-20T22:36:29.197Z,125.90
2022-12-20T22:38:57.185Z,121.47
2022-12-20T22:41:26.489Z,118.85
2022-12-20T22:43:54.284Z,123.65
2022-12-20T22:46:21.859Z,125.72
2022-12-20T22:48:49.400Z,131.20
2022-12-20T22:51:19.286Z,135.70
2022-12-20T22:53:47.515Z,127.97
2022-12-20T22:56:15.454Z,124.85
2022-12-20T22:58:42.714Z,122.13
2022-12-20T23:01:12.388Z,137.52
2022-12-20T23:03:39.671Z,136.90
2022-12-20T23:06:08.189Z,137.48
2022-12-20T23:08:36.613Z,142.38
2022-12-20T23:11:23.181Z,127.43
2022-12-20T23:14:09.375Z,120.88
2022-12-20T23:16:37.878Z,127.60
2022-12-20T23:19:05.327Z,128.80
2022-12-20T23:21:51.007Z,122.10
2022-12-20T23:24:18.201Z,136.05
2022-12-20T23:26:45.435Z,120.45
2022-12-20T23:29:14.204Z,139.07
2022-12-20T23:31:41.773Z,136.85
2022-12-20T23:34:08.991Z,129.88
2022-12-20T23:36:36.304Z,136.60
2022-12-20T23:39:04.097Z,132.55
2022-12-20T23:41:31.347Z,129.52
2022-12-20T23:43:58.636Z,128.50
2022-12-20T23:46:26.424Z,129.55
2022-12-20T23:48:54.173Z,123.00
2022-12-20T23:51:21.938Z,130.63
2022-12-20T23:53:49.803Z,136.98
2022-12-20T23:56:18.423Z,126.70
2022-12-20T23:58:46.226Z,126.00
